This is the latest recevied weather packets stored in our database for station/object KE8WAY. If no packets are shown the sender has not sent any weather packets the latest 10 day(s).
| Time | Temp. | Humidity | Pressure | Rain* | Wind** | Luminosity | Snow |
|---|---|---|---|---|---|---|---|
| 1778089562 | 13.33° C | 38% | 1011.6 hPa | 0 mm | - | 381 W/m² | - |
| 1778089258 | 13.33° C | 39% | 1011.4 hPa | 0 mm | - | 382 W/m² | - |
| 1778088956 | 13.89° C | 43% | 1011.6 hPa | 0 mm | - | 498 W/m² | - |
| 1778088652 | 13.33° C | 38% | 1011.5 hPa | 0 mm | - | 396 W/m² | - |
| 1778088350 | 13.33° C | 38% | 1011.6 hPa | 0 mm | - | 451 W/m² | - |
| 1778088046 | 13.33° C | 37% | 1012 hPa | 0 mm | - | 510 W/m² | - |
| 1778087743 | 13.33° C | 40% | 1011.6 hPa | 0 mm | - | 384 W/m² | - |
| 1778087441 | 13.33° C | 40% | 1012 hPa | 0 mm | - | 468 W/m² | - |
| 1778087138 | 13.89° C | 39% | 1011.6 hPa | 0 mm | - | 426 W/m² | - |
| 1778086830 | 13.89° C | 38% | 1011.7 hPa | 0 mm | - | 668 W/m² | - |
| 1778086528 | 13.33° C | 42% | 1011.6 hPa | 0 mm | - | 727 W/m² | - |
| 1778086224 | 12.78° C | 39% | 1011.7 hPa | 0 mm | - | 653 W/m² | - |
| 1778085921 | 13.33° C | 41% | 1011.9 hPa | 0 mm | - | 813 W/m² | - |
| 1778085618 | 13.33° C | 41% | 1011.8 hPa | 0 mm | - | 780 W/m² | - |
| 1778085314 | 13.33° C | 40% | 1011.9 hPa | 0 mm | - | 743 W/m² | - |
| 1778085010 | 12.78° C | 39% | 1011.9 hPa | 0 mm | - | 745 W/m² | - |
| 1778084706 | 12.78° C | 43% | 1011.7 hPa | 0 mm | - | 720 W/m² | - |
| 1778084398 | 12.78° C | 44% | 1011.6 hPa | 0 mm | - | 709 W/m² | - |
| 1778084096 | 13.33° C | 45% | 1011.8 hPa | 0 mm | - | 717 W/m² | - |
| 1778083793 | 12.78° C | 46% | 1011.8 hPa | 0 mm | - | 727 W/m² | - |
| 1778083490 | 12.78° C | 43% | 1011.9 hPa | 0 mm | - | 710 W/m² | - |
| 1778083187 | 12.78° C | 41% | 1011.8 hPa | 0 mm | - | 727 W/m² | - |
| 1778082885 | 12.78° C | 45% | 1011.8 hPa | 0 mm | - | 737 W/m² | - |
| 1778081777 | 12.22° C | 44% | 1011.5 hPa | 0 mm | - | 506 W/m² | - |
| 1778081474 | 11.67° C | 42% | 1011.4 hPa | 0 mm | - | 640 W/m² | - |
* Rain latest hour (hover to see other rain measurements)
** Current wind speed in m/s (hover to see current wind gust speed)